Time;durP1;ratioP1;P1;durP2;ratioP2;P2;SDS_P1;SDS_P2;PMS_P1;PMS_P2;Temp;Humidity;BMP_temperature;BMP_pressure;BME280_temperature;BME280_humidity;BME280_pressure;Samples;Min_cycle;Max_cycle;Signal;HPM_P1;HPM_P2
2021/12/07 00:01:19;;;;;;;26.17;13.60;;;;;;;;;;5042748;28;20045;-58
2021/12/07 00:03:45;;;;;;;24.90;14.55;;;;;;;;;;5047837;28;20040;-57
2021/12/07 00:06:11;;;;;;;26.77;14.52;;;;;;;;;;5052584;28;20631;-58
2021/12/07 00:08:40;;;;;;;25.50;13.93;;;;;;;;;;5041183;28;20038;-57
2021/12/07 00:11:10;;;;;;;28.23;14.15;;;;;;;;;;5032911;28;20060;-57
2021/12/07 00:13:38;;;;;;;20.88;12.65;;;;;;;;;;5041437;28;20523;-55
2021/12/07 00:16:08;;;;;;;25.02;12.85;;;;;;;;;;5040668;28;20049;-56
2021/12/07 00:18:34;;;;;;;26.63;14.65;;;;;;;;;;5043173;28;20037;-57
2021/12/07 00:21:00;;;;;;;24.77;13.70;;;;;;;;;;5038109;28;20056;-58
2021/12/07 00:23:26;;;;;;;24.55;14.15;;;;;;;;;;5045046;28;20471;-55
2021/12/07 00:25:53;;;;;;;25.52;13.65;;;;;;;;;;5054980;28;20041;-58
2021/12/07 00:28:21;;;;;;;27.50;16.05;;;1.70;99.90;;;;;;5054359;28;20048;-57
2021/12/07 00:30:48;;;;;;;32.05;16.42;;;;;;;;;;5062349;28;20041;-56
2021/12/07 00:33:29;;;;;;;23.60;13.60;;;1.80;99.90;;;;;;5056109;28;20112;-56
2021/12/07 00:35:55;;;;;;;25.98;13.82;;;1.70;99.90;;;;;;5053577;28;20041;-57
2021/12/07 00:38:23;;;;;;;23.75;13.45;;;;;;;;;;5064967;28;20082;-57
2021/12/07 00:40:50;;;;;;;21.88;12.18;;;;;;;;;;5064954;28;20048;-57
2021/12/07 00:43:16;;;;;;;21.83;12.98;;;1.50;99.90;;;;;;5064513;28;20036;-58
2021/12/07 00:45:45;;;;;;;21.52;11.82;;;;;;;;;;5059516;28;20043;-58
2021/12/07 00:48:12;;;;;;;21.38;11.23;;;;;;;;;;5050622;28;20052;-57
2021/12/07 00:50:39;;;;;;;22.42;12.55;;;;;;;;;;5050727;28;20515;-56
2021/12/07 00:53:06;;;;;;;18.75;11.35;;;1.30;99.90;;;;;;5062518;28;20041;-57
2021/12/07 00:55:34;;;;;;;20.88;12.27;;;;;;;;;;5062804;28;20040;-57
2021/12/07 00:58:00;;;;;;;20.70;12.10;;;;;;;;;;5060698;28;20530;-57
2021/12/07 01:00:30;;;;;;;20.80;10.85;;;1.30;99.90;;;;;;5068538;28;20059;-57
2021/12/07 01:02:55;;;;;;;23.90;12.73;;;1.30;99.90;;;;;;5056443;28;20411;-57
2021/12/07 01:05:27;;;;;;;23.77;13.75;;;;;;;;;;5046766;28;20029;-55
2021/12/07 01:26:57;;;;;;;20.55;11.00;;;;;;;;;;5050162;28;20045;-56
2021/12/07 01:29:25;;;;;;;21.45;11.93;;;;;;;;;;5060438;28;20059;-57
2021/12/07 01:32:10;;;;;;;25.02;14.07;;;;;;;;;;5052827;28;20108;-56
2021/12/07 01:35:12;;;;;;;22.35;12.10;;;1.40;99.90;;;;;;5041485;28;20036;-58
2021/12/07 01:43:10;;;;;;;20.92;12.00;;;1.40;99.90;;;;;;5033214;28;20088;-57
2021/12/07 01:49:54;;;;;;;25.13;13.23;;;;;;;;;;5053480;28;20052;-58
2021/12/07 02:01:54;;;;;;;26.30;13.95;;;;;;;;;;5050497;28;20041;-57
2021/12/07 02:04:21;;;;;;;25.42;13.80;;;;;;;;;;5051328;28;20123;-57
2021/12/07 02:06:47;;;;;;;25.00;13.68;;;;;;;;;;5058587;28;20538;-57
2021/12/07 02:09:13;;;;;;;25.13;14.32;;;;;;;;;;5048480;28;20033;-58
2021/12/07 02:11:46;;;;;;;24.42;14.07;;;;;;;;;;5057849;28;20472;-57
2021/12/07 02:14:18;;;;;;;25.17;13.80;;;;;;;;;;5052491;28;20075;-56
2021/12/07 02:16:53;;;;;;;21.90;13.15;;;1.90;99.90;;;;;;5045083;28;20472;-57
2021/12/07 02:19:19;;;;;;;;;;;1.30;99.90;;;;;;5061093;28;20075;-56
2021/12/07 02:21:45;;;;;;;25.27;13.38;;;1.80;99.90;;;;;;5050143;28;20438;-58
2021/12/07 02:24:11;;;;;;;26.38;13.57;;;;;;;;;;5060395;28;20411;-58
2021/12/07 02:26:37;;;;;;;26.60;13.25;;;;;;;;;;5056789;28;20033;-58
2021/12/07 02:29:04;;;;;;;23.58;12.88;;;;;;;;;;5051723;28;20037;-58
2021/12/07 02:31:31;;;;;;;25.85;13.88;;;;;;;;;;5050360;28;20155;-57
2021/12/07 02:33:57;;;;;;;30.95;14.93;;;;;;;;;;5059509;28;20040;-57
2021/12/07 02:36:23;;;;;;;27.58;14.40;;;;;;;;;;5049891;28;20041;-56
2021/12/07 02:38:49;;;;;;;25.63;13.50;;;1.70;99.90;;;;;;5057984;28;20051;-56
2021/12/07 02:41:15;;;;;;;25.85;14.15;;;;;;;;;;5063450;28;20040;-58
2021/12/07 02:43:42;;;;;;;25.60;13.27;;;;;;;;;;5066559;28;20048;-57
2021/12/07 02:46:08;;;;;;;30.17;14.98;;;;;;;;;;5058189;28;20044;-57
2021/12/07 02:48:34;;;;;;;26.25;13.48;;;;;;;;;;5063518;28;20117;-58
2021/12/07 02:51:01;;;;;;;25.48;13.68;;;;;;;;;;5046985;28;20048;-57
2021/12/07 02:53:28;;;;;;;27.58;14.45;;;;;;;;;;5059522;28;20037;-57
2021/12/07 02:55:56;;;;;;;29.00;14.63;;;1.50;99.90;;;;;;5050465;28;20048;-57
2021/12/07 02:58:23;;;;;;;27.73;14.40;;;;;;;;;;5049887;28;20032;-57
2021/12/07 03:01:04;;;;;;;31.73;14.68;;;;;;;;;;5051753;28;20045;-57
2021/12/07 03:03:35;;;;;;;25.15;13.85;;;;;;;;;;5048880;28;20059;-58
2021/12/07 03:06:16;;;;;;;29.15;15.30;;;1.70;99.90;;;;;;5050872;28;20051;-57
2021/12/07 03:09:20;;;;;;;26.42;14.13;;;;;;;;;;5056934;28;20032;-58
2021/12/07 03:28:06;;;;;;;25.38;14.73;;;;;;;;;;5044122;28;20046;-53
2021/12/07 03:30:32;;;;;;;27.85;14.50;;;;;;;;;;5059852;28;20493;-57
2021/12/07 03:32:59;;;;;;;27.45;14.73;;;2.20;99.90;;;;;;5058741;28;20049;-56
2021/12/07 03:35:26;;;;;;;29.95;15.40;;;;;;;;;;5052562;28;20423;-57
2021/12/07 03:37:53;;;;;;;27.63;14.18;;;2.60;99.90;;;;;;5050978;28;20124;-58
2021/12/07 03:40:18;;;;;;;24.45;13.35;;;2.00;99.90;;;;;;5046543;28;20049;-56
2021/12/07 03:42:44;;;;;;;29.15;14.10;;;;;;;;;;5050584;28;20044;-57
2021/12/07 03:45:11;;;;;;;28.58;13.95;;;;;;;;;;5050948;28;20095;-58
2021/12/07 03:47:38;;;;;;;29.52;13.32;;;;;;;;;;5047713;28;20051;-58
2021/12/07 03:50:04;;;;;;;31.08;14.38;;;;;;;;;;5048963;28;20091;-54
2021/12/07 03:52:30;;;;;;;27.30;13.23;;;;;;;;;;5044335;28;20078;-59
2021/12/07 03:54:56;;;;;;;27.95;14.35;;;1.90;99.90;;;;;;5047797;28;20033;-58
2021/12/07 03:57:21;;;;;;;29.50;12.77;;;2.00;99.90;;;;;;5049469;28;20040;-57
2021/12/07 03:59:47;;;;;;;27.00;12.20;;;2.10;99.90;;;;;;5047579;28;20423;-57
2021/12/07 04:02:13;;;;;;;28.83;12.25;;;;;;;;;;5050666;28;20041;-56
2021/12/07 04:04:39;;;;;;;28.77;11.85;;;;;;;;;;5055350;28;20546;-55
2021/12/07 04:07:06;;;;;;;25.50;11.77;;;;;;;;;;5051658;28;20053;-57
2021/12/07 04:09:32;;;;;;;27.35;13.32;;;2.20;99.90;;;;;;5052272;28;20487;-54
2021/12/07 04:11:59;;;;;;;25.33;11.43;;;2.50;99.90;;;;;;5050903;28;20040;-56
2021/12/07 04:14:24;;;;;;;27.58;11.55;;;2.10;99.90;;;;;;5041315;28;20033;-56
2021/12/07 04:16:51;;;;;;;21.23;10.57;;;;;;;;;;5050286;28;20060;-57
2021/12/07 04:19:16;;;;;;;20.40;10.25;;;2.10;99.90;;;;;;5063987;28;20040;-57
2021/12/07 04:21:42;;;;;;;23.83;10.48;;;;;;;;;;5060045;28;20090;-57
2021/12/07 04:24:08;;;;;;;28.52;12.45;;;;;;;;;;5052607;28;20037;-57
2021/12/07 04:26:35;;;;;;;29.65;13.15;;;;;;;;;;5064361;28;20055;-56
2021/12/07 04:29:01;;;;;;;30.58;12.82;;;;;;;;;;5053494;28;20032;-55
2021/12/07 04:31:27;;;;;;;20.50;9.90;;;;;;;;;;5060783;28;20032;-57
2021/12/07 04:33:53;;;;;;;17.50;7.25;;;;;;;;;;5060494;28;20037;-57
2021/12/07 04:36:18;;;;;;;14.38;6.28;;;2.00;99.90;;;;;;5062109;28;20044;-57
2021/12/07 04:38:44;;;;;;;22.00;7.90;;;;;;;;;;5057737;28;20059;-57
2021/12/07 04:41:10;;;;;;;13.82;6.25;;;;;;;;;;5063649;28;20080;-57
2021/12/07 04:43:37;;;;;;;18.35;7.03;;;;;;;;;;5054087;28;20445;-57
2021/12/07 04:48:58;;;;;;;15.98;6.53;;;;;;;;;;5063701;28;20040;-54
2021/12/07 04:59:34;;;;;;;14.50;5.93;;;;;;;;;;5047486;28;20041;-57
2021/12/07 05:02:00;;;;;;;12.15;5.03;;;2.50;99.90;;;;;;5053762;28;20044;-54
2021/12/07 05:04:30;;;;;;;12.27;4.65;;;;;;;;;;5067689;28;20491;-56
2021/12/07 05:07:05;;;;;;;11.82;4.55;;;2.50;99.90;;;;;;5065486;28;20053;-57
2021/12/07 05:14:30;;;;;;;11.98;4.25;;;3.10;99.90;;;;;;5053144;28;20139;-55
2021/12/07 05:38:50;;;;;;;13.38;4.13;;;3.00;99.90;;;;;;5051550;28;20041;-55
2021/12/07 05:41:16;;;;;;;10.23;4.22;;;;;;;;;;5058237;28;20068;-55
2021/12/07 05:43:42;;;;;;;11.43;3.72;;;;;;;;;;5064856;28;20043;-54
2021/12/07 05:46:07;;;;;;;11.85;3.53;;;2.90;99.90;;;;;;5056104;28;20037;-56
2021/12/07 05:48:33;;;;;;;12.45;3.40;;;;;;;;;;5064635;28;20551;-55
2021/12/07 05:50:59;;;;;;;12.75;3.78;;;;;;;;;;5057255;28;20045;-56
2021/12/07 05:53:25;;;;;;;11.65;3.35;;;3.20;99.90;;;;;;5047198;28;20407;-56
2021/12/07 05:55:51;;;;;;;11.55;3.90;;;;;;;;;;5040155;28;20044;-56
2021/12/07 05:58:19;;;;;;;14.38;4.80;;;;;;;;;;5048939;28;20103;-55
2021/12/07 06:00:46;;;;;;;11.77;4.55;;;;;;;;;;5050923;28;20064;-54
2021/12/07 06:03:13;;;;;;;19.17;4.50;;;;;;;;;;5064462;28;20095;-56
2021/12/07 06:05:40;;;;;;;13.02;3.63;;;;;;;;;;5050316;28;20194;-55
2021/12/07 06:08:07;;;;;;;8.27;3.40;;;;;;;;;;5054492;28;20041;-55
2021/12/07 06:10:33;;;;;;;14.18;4.00;;;;;;;;;;5052752;28;20091;-56
2021/12/07 06:12:59;;;;;;;16.38;3.92;;;;;;;;;;5043798;28;20041;-55
2021/12/07 06:15:27;;;;;;;18.13;4.05;;;2.80;99.90;;;;;;5047203;28;20467;-56
2021/12/07 06:17:53;;;;;;;12.88;3.72;;;;;;;;;;5049718;28;20043;-56
2021/12/07 06:20:21;;;;;;;15.05;3.65;;;3.10;99.90;;;;;;5053698;28;20051;-57
2021/12/07 06:22:47;;;;;;;9.30;3.55;;;;;;;;;;5060105;28;20093;-52
2021/12/07 06:25:16;;;;;;;13.05;3.90;;;3.10;99.90;;;;;;5058993;28;20041;-56
2021/12/07 06:27:42;;;;;;;13.43;3.03;;;;;;;;;;5049538;28;20427;-55
2021/12/07 06:30:09;;;;;;;8.10;3.08;;;;;;;;;;5049572;28;20056;-56
2021/12/07 06:32:35;;;;;;;11.98;3.72;;;;;;;;;;5063534;28;20152;-55
2021/12/07 06:35:01;;;;;;;16.10;3.80;;;;;;;;;;5060730;28;20431;-56
2021/12/07 06:37:27;;;;;;;12.30;3.22;;;;;;;;;;5061477;28;20040;-55
2021/12/07 06:39:53;;;;;;;11.02;3.50;;;;;;;;;;5065419;28;20044;-56
2021/12/07 06:42:19;;;;;;;10.63;3.55;;;2.70;99.90;;;;;;5052753;28;20064;-56
2021/12/07 06:44:44;;;;;;;21.85;5.43;;;2.80;99.90;;;;;;5051558;28;20476;-55
2021/12/07 06:47:10;;;;;;;17.95;4.63;;;;;;;;;;5050054;28;20041;-54
2021/12/07 06:49:37;;;;;;;15.32;4.25;;;;;;;;;;5047301;28;20068;-54
2021/12/07 06:52:03;;;;;;;15.68;4.95;;;2.80;99.90;;;;;;5034508;28;20037;-55
2021/12/07 06:54:30;;;;;;;12.25;4.82;;;2.70;99.90;;;;;;5036385;28;20526;-56
2021/12/07 06:56:56;;;;;;;15.18;4.47;;;;;;;;;;5034339;28;20043;-54
2021/12/07 06:59:22;;;;;;;13.45;4.65;;;2.70;99.90;;;;;;5042170;28;20052;-56
2021/12/07 07:01:49;;;;;;;12.38;4.38;;;;;;;;;;5044426;28;20587;-57
2021/12/07 07:04:14;;;;;;;12.50;5.10;;;2.80;99.90;;;;;;5045073;28;20044;-57
2021/12/07 07:06:41;;;;;;;18.60;5.28;;;;;;;;;;5050457;28;20033;-57
2021/12/07 07:09:07;;;;;;;13.73;5.18;;;;;;;;;;5053305;28;20066;-56
2021/12/07 07:11:33;;;;;;;11.85;3.90;;;;;;;;;;5054831;28;20385;-53
2021/12/07 07:14:01;;;;;;;12.55;4.38;;;;;;;;;;5056748;28;20045;-55
2021/12/07 07:16:27;;;;;;;17.08;4.40;;;;;;;;;;5051999;28;20070;-54
2021/12/07 07:18:53;;;;;;;15.10;4.38;;;;;;;;;;5062662;28;20479;-54
2021/12/07 07:21:20;;;;;;;10.15;4.38;;;;;;;;;;5061311;28;20174;-55
2021/12/07 07:23:45;;;;;;;15.77;2.97;;;2.90;99.90;;;;;;5063005;28;20157;-54
2021/12/07 07:26:11;;;;;;;12.32;3.40;;;3.20;99.90;;;;;;5060301;28;20201;-56
2021/12/07 07:28:38;;;;;;;12.60;4.10;;;;;;;;;;5048185;28;20025;-55
2021/12/07 07:31:05;;;;;;;15.32;3.92;;;;;;;;;;5062031;28;20060;-56
2021/12/07 07:33:31;;;;;;;18.27;3.92;;;;;;;;;;5043305;28;20041;-55
2021/12/07 07:35:57;;;;;;;12.13;3.35;;;;;;;;;;5118928;22;20044;-55
2021/12/07 07:38:22;;;;;;;12.07;3.33;;;3.50;99.90;;;;;;5048360;28;20397;-55
2021/12/07 07:40:48;;;;;;;12.45;3.42;;;3.50;99.90;;;;;;5024039;28;20045;-52
2021/12/07 07:43:16;;;;;;;8.57;3.03;;;3.70;99.90;;;;;;5031204;28;20037;-55
2021/12/07 07:45:43;;;;;;;11.80;3.17;;;;;;;;;;5044385;28;20495;-54
2021/12/07 07:48:09;;;;;;;16.20;4.50;;;3.50;99.90;;;;;;5050956;28;20507;-54
2021/12/07 07:50:36;;;;;;;17.00;3.83;;;;;;;;;;5051189;28;20041;-56
2021/12/07 07:53:01;;;;;;;14.32;3.47;;;3.50;99.90;;;;;;5046997;28;20029;-55
2021/12/07 07:55:27;;;;;;;12.02;3.22;;;3.40;99.90;;;;;;5043025;28;20479;-57
2021/12/07 07:57:53;;;;;;;8.45;3.03;;;;;;;;;;5033048;28;20124;-53
2021/12/07 08:00:19;;;;;;;14.95;3.80;;;;;;;;;;5052290;28;20514;-52
2021/12/07 08:02:46;;;;;;;13.70;4.55;;;;;;;;;;5054994;28;20048;-54
2021/12/07 08:05:12;;;;;;;11.52;3.45;;;3.30;99.90;;;;;;5054415;28;20397;-54
2021/12/07 08:07:39;;;;;;;12.05;3.85;;;;;;;;;;5054541;28;20040;-54
2021/12/07 08:10:06;;;;;;;11.88;4.80;;;;;;;;;;5054797;28;20041;-52
2021/12/07 08:12:32;;;;;;;13.13;3.60;;;;;;;;;;5054625;28;20041;-54
2021/12/07 08:14:58;;;;;;;18.65;3.90;;;3.20;99.90;;;;;;5054453;28;20037;-55
2021/12/07 08:17:24;;;;;;;12.98;3.55;;;;;;;;;;5054448;28;20063;-53
2021/12/07 08:19:50;;;;;;;13.32;3.95;;;;;;;;;;5054639;28;20460;-56
2021/12/07 08:22:15;;;;;;;10.50;4.00;;;3.00;99.90;;;;;;5054196;28;20072;-57
2021/12/07 08:24:41;;;;;;;10.73;3.47;;;3.00;99.90;;;;;;5054457;28;20454;-56
2021/12/07 08:27:07;;;;;;;16.45;4.50;;;;;;;;;;5054549;28;20044;-55
2021/12/07 08:29:33;;;;;;;17.52;3.95;;;;;;;;;;5054454;28;20037;-55
2021/12/07 08:31:59;;;;;;;15.00;4.00;;;;;;;;;;5036530;28;20049;-55
2021/12/07 08:34:25;;;;;;;16.30;4.93;;;;;;;;;;5053996;28;20040;-55
2021/12/07 08:36:51;;;;;;;14.82;4.10;;;;;;;;;;5053760;28;20514;-55
2021/12/07 08:39:17;;;;;;;12.60;4.38;;;2.80;99.90;;;;;;5048094;28;20099;-55
2021/12/07 08:41:42;;;;;;;16.58;3.97;;;2.90;99.90;;;;;;5048478;28;20036;-57
2021/12/07 08:44:09;;;;;;;11.02;3.55;;;;;;;;;;5053786;28;20033;-53
2021/12/07 08:46:34;;;;;;;12.90;4.03;;;2.80;99.90;;;;;;5053928;28;20693;-56
2021/12/07 08:49:00;;;;;;;11.18;4.40;;;;;;;;;;5053803;28;20161;-53
2021/12/07 08:51:26;;;;;;;16.20;4.28;;;;;;;;;;5036102;28;20301;-54
2021/12/07 08:53:59;;;;;;;12.23;4.40;;;;;;;;;;5053762;28;20483;-55
2021/12/07 09:01:54;;;;;;;13.40;5.00;;;;;;;;;;5042893;28;20095;-54
2021/12/07 09:04:20;;;;;;;16.67;4.28;;;3.10;99.90;;;;;;5031896;28;20053;-55
2021/12/07 09:06:47;;;;;;;14.75;4.50;;;;;;;;;;5033336;28;20041;-55
2021/12/07 09:09:13;;;;;;;13.68;4.95;;;;;;;;;;5019287;28;20424;-52
2021/12/07 09:11:40;;;;;;;14.70;4.72;;;;;;;;;;5032615;28;20164;-55
2021/12/07 09:14:06;;;;;;;14.25;4.43;;;;;;;;;;5024155;28;20408;-55
2021/12/07 09:16:31;;;;;;;16.48;6.60;;;3.20;99.90;;;;;;5015402;28;20139;-55
2021/12/07 09:18:57;;;;;;;14.63;5.20;;;;;;;;;;5016456;28;20061;-56
2021/12/07 09:21:23;;;;;;;17.42;5.28;;;;;;;;;;5018241;28;20033;-54
2021/12/07 09:23:50;;;;;;;15.40;4.78;;;3.40;99.90;;;;;;5019328;28;20045;-55
2021/12/07 09:26:15;;;;;;;14.02;6.43;;;3.50;99.90;;;;;;5016448;28;20033;-56
2021/12/07 09:28:44;;;;;;;15.30;6.38;;;;;;;;;;5013213;28;20523;-57
2021/12/07 09:31:10;;;;;;;17.17;5.80;;;;;;;;;;5033735;28;20045;-54
2021/12/07 09:33:37;;;;;;;13.45;5.10;;;3.90;99.90;;;;;;5032627;28;20041;-56
2021/12/07 09:36:04;;;;;;;13.18;5.43;;;;;;;;;;5032102;28;20121;-54
2021/12/07 09:38:30;;;;;;;16.88;5.40;;;4.00;99.90;;;;;;5026611;28;20108;-55
2021/12/07 09:40:56;;;;;;;14.93;5.18;;;4.50;99.90;;;;;;5032398;28;20172;-56
2021/12/07 09:43:22;;;;;;;17.35;5.78;;;;;;;;;;5026230;28;20047;-54
2021/12/07 09:45:48;;;;;;;21.75;5.22;;;4.40;99.90;;;;;;5029078;28;20128;-53
2021/12/07 09:48:15;;;;;;;21.77;5.53;;;;;;;;;;5013383;28;20041;-54
2021/12/07 09:50:43;;;;;;;14.70;6.30;;;;;;;;;;5014983;28;20065;-56
2021/12/07 09:53:11;;;;;;;13.20;5.97;;;4.60;99.90;;;;;;5032429;28;20065;-54
2021/12/07 09:55:37;;;;;;;17.40;5.68;;;;;;;;;;5032076;28;20179;-54
2021/12/07 09:58:04;;;;;;;12.98;5.07;;;4.60;99.90;;;;;;5031379;28;20459;-55
2021/12/07 10:00:30;;;;;;;14.52;5.53;;;;;;;;;;5032541;28;20033;-56
2021/12/07 10:02:57;;;;;;;17.70;5.35;;;;;;;;;;5013495;28;20484;-57
2021/12/07 10:05:24;;;;;;;15.70;5.28;;;;;;;;;;5031711;28;20041;-56
2021/12/07 10:07:50;;;;;;;12.18;4.80;;;4.90;99.90;;;;;;5030237;28;20045;-56
2021/12/07 10:10:24;;;;;;;12.05;4.75;;;;;;;;;;5029895;28;20030;-54
2021/12/07 10:12:50;;;;;;;18.38;4.80;;;;;;;;;;5031984;28;20045;-57
2021/12/07 10:15:17;;;;;;;14.85;5.40;;;;;;;;;;5031913;28;20290;-56
2021/12/07 10:17:43;;;;;;;13.00;4.70;;;;;;;;;;5035196;28;20041;-56
2021/12/07 10:20:31;;;;;;;16.63;5.30;;;;;;;;;;5023625;28;20037;-55
2021/12/07 10:23:02;;;;;;;17.27;4.80;;;;;;;;;;5014681;28;20112;-56
2021/12/07 10:25:28;;;;;;;9.88;4.45;;;4.60;99.90;;;;;;5015709;28;20041;-53
2021/12/07 10:27:56;;;;;;;13.40;4.38;;;4.50;99.90;;;;;;5031489;28;20033;-56
2021/12/07 10:30:23;;;;;;;10.77;3.97;;;4.80;99.90;;;;;;5031986;28;20041;-57
2021/12/07 10:32:59;;;;;;;15.02;4.30;;;;;;;;;;5032313;28;20034;-57
2021/12/07 10:35:30;;;;;;;13.63;4.45;;;4.50;99.90;;;;;;5031226;28;20407;-55
2021/12/07 10:38:09;;;;;;;7.97;4.05;;;;;;;;;;5032236;28;20045;-55
2021/12/07 10:40:36;;;;;;;12.55;3.55;;;;;;;;;;5012666;28;20041;-56
2021/12/07 10:43:01;;;;;;;13.38;4.00;;;5.10;99.90;;;;;;5012104;28;20077;-57
2021/12/07 10:45:28;;;;;;;13.90;3.67;;;;;;;;;;5019206;28;20072;-56
2021/12/07 10:47:54;;;;;;;9.35;3.83;;;;;;;;;;5026054;28;20041;-56
2021/12/07 10:50:20;;;;;;;11.30;3.35;;;;;;;;;;5031565;28;20095;-56
2021/12/07 10:52:46;;;;;;;10.55;3.42;;;;;;;;;;5014141;28;20033;-56
2021/12/07 10:55:21;;;;;;;14.77;4.18;;;5.70;99.90;;;;;;5031622;28;20073;-57
2021/12/07 10:57:59;;;;;;;13.00;4.55;;;5.40;99.90;;;;;;5013788;28;20054;-54
2021/12/07 11:00:30;;;;;;;10.50;3.75;;;;;;;;;;5031512;28;20037;-56
2021/12/07 11:02:58;;;;;;;10.98;3.38;;;;;;;;;;5031958;28;20100;-54
2021/12/07 11:05:26;;;;;;;9.05;3.38;;;;;;;;;;5031393;28;20041;-55
2021/12/07 11:07:53;;;;;;;13.00;3.80;;;;;;;;;;5013684;28;20094;-55
2021/12/07 11:10:30;;;;;;;11.55;3.88;;;5.40;99.90;;;;;;5031388;28;20041;-57
2021/12/07 11:15:27;;;;;;;17.48;4.40;;;5.90;99.90;;;;;;5031678;28;20056;-57
2021/12/07 11:18:01;;;;;;;12.73;4.03;;;5.80;99.90;;;;;;5031323;28;20041;-54
2021/12/07 11:20:29;;;;;;;10.98;3.58;;;5.80;99.90;;;;;;5031274;28;20096;-55
2021/12/07 11:23:00;;;;;;;13.23;5.22;;;;;;;;;;5037605;28;20044;-53
2021/12/07 11:25:53;;;;;;;14.48;5.00;;;;;;;;;;5034840;28;20075;-57
2021/12/07 11:31:13;;;;;;;11.25;4.00;;;;;;;;;;5051223;28;20033;-53
2021/12/07 11:33:39;;;;;;;9.73;3.95;;;;;;;;;;5051318;28;20041;-53
2021/12/07 11:36:24;;;;;;;10.80;4.38;;;;;;;;;;5035526;28;20573;-57
2021/12/07 11:38:50;;;;;;;12.48;4.40;;;5.40;99.90;;;;;;5029543;28;20124;-55
2021/12/07 11:41:20;;;;;;;11.35;3.85;;;;;;;;;;5018569;28;20095;-54
2021/12/07 11:43:53;;;;;;;11.02;3.63;;;;;;;;;;5043480;28;20535;-56
2021/12/07 11:46:20;;;;;;;14.18;4.53;;;;;;;;;;5034915;28;20029;-54
2021/12/07 11:48:47;;;;;;;12.68;4.90;;;;;;;;;;5042559;28;20046;-55
2021/12/07 11:51:13;;;;;;;12.98;3.88;;;;;;;;;;5053711;28;20044;-55
2021/12/07 11:53:39;;;;;;;11.73;4.55;;;;;;;;;;5055063;28;20126;-55
2021/12/07 11:56:05;;;;;;;13.90;3.92;;;;;;;;;;5048436;28;20073;-55
2021/12/07 11:58:31;;;;;;;10.82;3.90;;;;;;;;;;5031347;28;20068;-56
2021/12/07 12:00:57;;;;;;;15.80;4.18;;;;;;;;;;5038158;28;20124;-56
2021/12/07 12:03:25;;;;;;;10.43;3.95;;;6.00;99.90;;;;;;5015224;28;20050;-56
2021/12/07 12:05:52;;;;;;;11.93;4.75;;;;;;;;;;5019285;28;20041;-54
2021/12/07 12:08:21;;;;;;;14.80;4.15;;;;;;;;;;5044967;28;20095;-56
2021/12/07 12:10:59;;;;;;;12.52;3.15;;;;;;;;;;5054750;28;20040;-56
2021/12/07 12:13:45;;;;;;;14.85;4.50;;;;;;;;;;5034673;28;20155;-52
2021/12/07 12:16:11;;;;;;;14.02;4.18;;;6.60;99.90;;;;;;5034494;28;20374;-54
2021/12/07 12:18:57;;;;;;;9.07;3.70;;;;;;;;;;5041958;28;20060;-54
2021/12/07 12:21:33;;;;;;;10.82;4.07;;;;;;;;;;5048180;28;20033;-56
2021/12/07 12:24:08;;;;;;;11.80;3.97;;;7.10;99.90;;;;;;5046001;28;20049;-56
2021/12/07 12:26:35;;;;;;;14.35;3.65;;;7.00;99.90;;;;;;5054461;28;20381;-56
2021/12/07 12:29:01;;;;;;;11.80;3.70;;;;;;;;;;5054697;28;20041;-57
2021/12/07 12:31:49;;;;;;;9.40;3.20;;;;;;;;;;5054542;28;20407;-57
2021/12/07 12:34:24;;;;;;;13.82;4.32;;;;;;;;;;5054156;28;20076;-53
2021/12/07 12:37:06;;;;;;;12.13;4.25;;;7.10;99.90;;;;;;5046489;28;20480;-56
2021/12/07 12:39:49;;;;;;;15.38;4.78;;;7.20;99.90;;;;;;5040236;28;20044;-57
2021/12/07 12:42:31;;;;;;;12.98;3.92;;;7.30;99.90;;;;;;5041547;28;20049;-55
2021/12/07 12:45:00;;;;;;;11.50;3.97;;;7.50;99.90;;;;;;5040265;28;20065;-57
2021/12/07 12:47:27;;;;;;;11.00;3.47;;;;;;;;;;5034111;28;20091;-53
2021/12/07 12:49:53;;;;;;;12.15;3.65;;;;;;;;;;5034271;28;20048;-56
2021/12/07 12:52:36;;;;;;;9.35;3.70;;;;;;;;;;5033977;28;20045;-56
2021/12/07 12:55:04;;;;;;;11.18;3.72;;;7.40;99.90;;;;;;5033916;28;20050;-55
2021/12/07 12:57:30;;;;;;;10.50;3.63;;;;;;;;;;5034263;28;20088;-56
2021/12/07 12:59:56;;;;;;;8.30;3.20;;;;;;;;;;5032893;28;20044;-57
2021/12/07 13:02:22;;;;;;;10.75;4.03;;;;;;;;;;5045185;28;20037;-56
2021/12/07 13:05:04;;;;;;;14.70;4.30;;;7.20;99.90;;;;;;5053697;28;20120;-56
2021/12/07 13:07:30;;;;;;;16.02;4.22;;;;;;;;;;5035209;28;20484;-55
2021/12/07 13:09:57;;;;;;;10.75;3.97;;;;;;;;;;5042112;28;20121;-57
2021/12/07 13:12:25;;;;;;;13.68;3.78;;;;;;;;;;5035796;28;20385;-56
2021/12/07 13:14:58;;;;;;;11.23;4.07;;;7.40;99.90;;;;;;5045237;28;20065;-55
2021/12/07 13:17:27;;;;;;;11.20;4.15;;;;;;;;;;5053350;28;20434;-54
2021/12/07 13:20:07;;;;;;;14.73;4.82;;;7.00;99.90;;;;;;5053438;28;20087;-54
2021/12/07 13:22:37;;;;;;;13.70;4.40;;;;;;;;;;5053690;28;20126;-53
2021/12/07 13:25:06;;;;;;;13.32;4.68;;;7.30;99.90;;;;;;5052913;28;20507;-55
2021/12/07 13:27:32;;;;;;;11.18;4.15;;;;;;;;;;5044090;28;20044;-54
2021/12/07 13:29:57;;;;;;;12.25;4.20;;;7.20;99.90;;;;;;5049640;28;20041;-54
2021/12/07 13:32:23;;;;;;;14.40;4.68;;;;;;;;;;5046232;28;20044;-56
2021/12/07 13:35:04;;;;;;;14.82;5.97;;;6.90;99.90;;;;;;5044281;28;20036;-56
2021/12/07 13:37:46;;;;;;;10.15;4.30;;;;;;;;;;5048459;28;20045;-56
2021/12/07 13:40:21;;;;;;;10.18;4.07;;;7.40;99.90;;;;;;5025291;28;20371;-53
2021/12/07 13:42:50;;;;;;;13.20;4.38;;;;;;;;;;5045245;28;20045;-56
2021/12/07 13:45:19;;;;;;;12.95;5.00;;;7.20;99.90;;;;;;5051625;28;20167;-56
2021/12/07 13:47:47;;;;;;;14.77;4.05;;;6.70;99.90;;;;;;5053037;28;20037;-55
2021/12/07 13:50:16;;;;;;;10.23;4.05;;;;;;;;;;5052849;28;20041;-55
2021/12/07 13:52:43;;;;;;;11.70;4.15;;;;;;;;;;5053451;28;20519;-53
2021/12/07 13:55:11;;;;;;;10.15;4.03;;;;;;;;;;5043542;28;20404;-54
2021/12/07 13:57:39;;;;;;;11.82;4.25;;;;;;;;;;5043560;28;20045;-55
2021/12/07 14:00:18;;;;;;;16.73;5.18;;;6.70;99.90;;;;;;5052803;28;20049;-56
2021/12/07 14:02:46;;;;;;;13.73;4.45;;;;;;;;;;5025711;28;20190;-54
2021/12/07 14:05:20;;;;;;;11.50;3.50;;;5.90;99.90;;;;;;5041476;28;20045;-56
2021/12/07 14:07:48;;;;;;;9.25;4.07;;;6.10;99.90;;;;;;5040289;28;20029;-55
2021/12/07 14:10:19;;;;;;;12.45;3.90;;;;;;;;;;5041879;28;20377;-55
2021/12/07 14:12:47;;;;;;;15.18;5.05;;;6.30;99.90;;;;;;5026516;28;20052;-52
2021/12/07 14:15:15;;;;;;;11.55;4.70;;;;;;;;;;5032500;28;20419;-54
2021/12/07 14:17:43;;;;;;;12.27;4.47;;;;;;;;;;5031970;28;20041;-54
2021/12/07 14:20:09;;;;;;;9.98;4.00;;;;;;;;;;5026688;28;20127;-55
2021/12/07 14:22:35;;;;;;;10.73;4.15;;;;;;;;;;5032997;28;20296;-54
2021/12/07 14:25:01;;;;;;;12.50;4.43;;;;;;;;;;5032076;28;20045;-55
2021/12/07 14:27:27;;;;;;;11.15;4.05;;;;;;;;;;5036768;28;20396;-56
2021/12/07 14:29:54;;;;;;;12.05;4.82;;;;;;;;;;5047992;28;20041;-56
2021/12/07 14:32:20;;;;;;;10.98;4.10;;;;;;;;;;5052081;28;20098;-56
2021/12/07 14:34:49;;;;;;;12.10;4.53;;;5.70;99.90;;;;;;5051695;28;20461;-55
2021/12/07 14:37:15;;;;;;;13.10;4.95;;;5.40;99.90;;;;;;5031109;28;20053;-56
2021/12/07 14:39:43;;;;;;;17.45;5.20;;;5.20;99.90;;;;;;5040514;28;20084;-55
2021/12/07 14:42:12;;;;;;;13.43;4.13;;;5.50;99.90;;;;;;5029883;28;20065;-54
2021/12/07 14:44:39;;;;;;;14.35;5.32;;;;;;;;;;5039989;28;20504;-56
2021/12/07 14:47:07;;;;;;;11.48;3.90;;;;;;;;;;5031817;28;20162;-55
2021/12/07 14:49:37;;;;;;;13.75;4.40;;;;;;;;;;5025809;28;20041;-55
2021/12/07 14:52:12;;;;;;;13.13;4.47;;;4.50;99.90;;;;;;5052188;28;20110;-55
2021/12/07 14:54:38;;;;;;;12.20;4.68;;;4.90;99.90;;;;;;5051886;28;20044;-55
2021/12/07 14:57:04;;;;;;;11.85;4.43;;;;;;;;;;5047878;28;20036;-53
2021/12/07 14:59:30;;;;;;;15.05;5.90;;;;;;;;;;5026687;28;20450;-56
2021/12/07 15:01:57;;;;;;;13.13;4.35;;;;;;;;;;5033592;28;20037;-56
2021/12/07 15:04:24;;;;;;;12.73;4.43;;;;;;;;;;5051147;28;20106;-54
2021/12/07 15:07:00;;;;;;;17.55;5.00;;;;;;;;;;5034095;28;20093;-55
2021/12/07 15:09:27;;;;;;;9.85;4.60;;;;;;;;;;5029204;28;20044;-55
2021/12/07 15:11:55;;;;;;;15.55;5.20;;;4.80;99.90;;;;;;5038767;28;20547;-54
2021/12/07 15:14:23;;;;;;;16.73;5.80;;;;;;;;;;5050920;28;20051;-56
2021/12/07 15:16:52;;;;;;;15.65;5.68;;;4.50;99.90;;;;;;5043972;28;20037;-55
2021/12/07 15:19:18;;;;;;;16.33;5.70;;;4.40;99.90;;;;;;5040324;28;20055;-54
2021/12/07 15:21:44;;;;;;;14.20;6.57;;;;;;;;;;5031874;28;20488;-56
2021/12/07 15:24:14;;;;;;;18.40;6.15;;;4.50;99.90;;;;;;5031718;28;20045;-55
2021/12/07 15:26:40;;;;;;;15.18;6.38;;;;;;;;;;5031257;28;20044;-56
2021/12/07 15:29:11;;;;;;;15.10;6.00;;;;;;;;;;5031517;28;20045;-57
2021/12/07 15:31:48;;;;;;;19.35;7.47;;;4.30;99.90;;;;;;5017686;28;20112;-56
2021/12/07 15:34:19;;;;;;;13.60;6.80;;;3.60;99.90;;;;;;5039607;28;20402;-56
2021/12/07 15:36:47;;;;;;;17.90;8.40;;;;;;;;;;5045697;28;20415;-56
2021/12/07 15:39:13;;;;;;;19.60;8.10;;;;;;;;;;5033422;28;20155;-54
2021/12/07 15:41:41;;;;;;;23.33;9.88;;;;;;;;;;5036959;28;20071;-57